Time;durP1;ratioP1;P1;durP2;ratioP2;P2;SDS_P1;SDS_P2;PMS_P1;PMS_P2;Temp;Humidity;BMP_temperature;BMP_pressure;BME280_temperature;BME280_humidity;BME280_pressure;Samples;Min_cycle;Max_cycle;Signal;HPM_P1;HPM_P2
2023/04/24 00:01:36;;;;;;;7.83;6.50;;;11.70;1.00;;;;;;5004588;28;20469;-83
2023/04/24 00:04:03;;;;;;;7.27;6.57;;;11.60;43.80;;;;;;4997715;28;20871;-83
2023/04/24 00:06:32;;;;;;;7.77;7.07;;;11.60;99.90;;;;;;4997848;28;20430;-83
2023/04/24 00:09:00;;;;;;;7.30;6.60;;;11.70;94.90;;;;;;4998719;28;20550;-83
2023/04/24 00:11:27;;;;;;;8.17;7.37;;;11.60;99.90;;;;;;5016710;28;20456;-82
2023/04/24 00:13:55;;;;;;;6.63;6.03;;;11.60;99.90;;;;;;5011045;28;20469;-82
2023/04/24 00:16:22;;;;;;;7.93;7.13;;;11.60;99.90;;;;;;5011078;28;20430;-84
2023/04/24 00:18:49;;;;;;;9.27;6.37;;;11.60;99.90;;;;;;5011930;28;20464;-82
2023/04/24 00:21:17;;;;;;;6.80;6.13;;;11.60;99.90;;;;;;5011022;28;20430;-82
2023/04/24 00:23:44;;;;;;;8.23;7.10;;;11.50;99.90;;;;;;5010011;28;20477;-83
2023/04/24 00:26:11;;;;;;;7.70;7.10;;;11.50;99.90;;;;;;5010306;28;20434;-83
2023/04/24 00:28:38;;;;;;;8.83;7.27;;;11.40;99.90;;;;;;5006577;28;20420;-83
2023/04/24 00:31:06;;;;;;;7.87;7.17;;;11.40;99.90;;;;;;5004941;28;20797;-83
2023/04/24 00:33:33;;;;;;;8.60;7.73;;;11.40;99.90;;;;;;5004141;28;20550;-83
2023/04/24 00:36:00;;;;;;;8.00;6.93;;;;;;;;;;5003214;28;20428;-83
2023/04/24 00:38:27;;;;;;;7.27;6.57;;;11.40;99.90;;;;;;5002260;28;20472;-83
2023/04/24 00:40:54;;;;;;;7.17;6.57;;;11.40;99.90;;;;;;5006663;28;20496;-83
2023/04/24 00:43:21;;;;;;;7.13;6.40;;;11.30;1.00;;;;;;5018520;28;20497;-82
2023/04/24 00:45:48;;;;;;;7.37;6.67;;;11.30;1.00;;;;;;5017548;28;20430;-82
2023/04/24 00:48:17;;;;;;;7.37;6.77;;;11.30;1.00;;;;;;5017970;28;20479;-82
2023/04/24 00:50:45;;;;;;;12.53;6.60;;;11.30;1.00;;;;;;5018077;28;20459;-82
2023/04/24 00:53:11;;;;;;;10.33;7.20;;;11.30;1.00;;;;;;5017571;28;20536;-83
2023/04/24 00:55:38;;;;;;;7.20;6.60;;;11.30;1.00;;;;;;5013638;28;20516;-83
2023/04/24 00:58:05;;;;;;;11.43;7.23;;;11.30;1.00;;;;;;5007440;28;20583;-83
2023/04/24 01:00:32;;;;;;;13.87;12.17;;;11.30;1.00;;;;;;5012434;28;20428;-82
2023/04/24 01:03:01;;;;;;;7.70;6.60;;;11.20;1.00;;;;;;5008375;28;20899;-82
2023/04/24 01:05:30;;;;;;;7.20;6.57;;;11.20;1.00;;;;;;5005634;28;20511;-82
2023/04/24 01:07:57;;;;;;;7.40;6.70;;;11.30;1.00;;;;;;5004690;28;20495;-82
2023/04/24 01:10:25;;;;;;;7.63;6.93;;;11.10;21.60;;;;;;5004545;28;20457;-82
2023/04/24 01:12:52;;;;;;;8.50;7.53;;;11.50;62.40;;;;;;5003918;28;20480;-83
2023/04/24 01:15:19;;;;;;;8.23;7.23;;;11.20;1.00;;;;;;5004415;28;20968;-83
2023/04/24 01:17:46;;;;;;;7.73;7.10;;;11.20;1.00;;;;;;5004651;28;20512;-83
2023/04/24 01:20:15;;;;;;;7.33;6.70;;;11.20;1.00;;;;;;5004105;28;20419;-83
2023/04/24 01:22:44;;;;;;;7.00;6.30;;;;;;;;;;5003697;28;20459;-83
2023/04/24 01:25:11;;;;;;;7.03;6.43;;;11.20;22.60;;;;;;5003158;28;20441;-82
2023/04/24 01:27:38;;;;;;;7.23;6.40;;;11.20;52.30;;;;;;5002776;28;20897;-83
2023/04/24 01:30:06;;;;;;;8.20;7.37;;;11.20;94.20;;;;;;5003363;28;20433;-83
2023/04/24 01:32:33;;;;;;;7.80;7.10;;;11.20;99.90;;;;;;5003794;28;20427;-83
2023/04/24 01:35:00;;;;;;;7.53;6.90;;;11.20;99.90;;;;;;5018199;28;20449;-83
2023/04/24 01:37:27;;;;;;;7.70;6.90;;;11.20;99.90;;;;;;5015281;28;20453;-82
2023/04/24 01:39:56;;;;;;;8.17;7.40;;;11.20;99.90;;;;;;5003992;28;21031;-82
2023/04/24 01:42:23;;;;;;;8.40;7.60;;;11.50;1.00;;;;;;5001836;28;20444;-82
2023/04/24 01:44:51;;;;;;;7.40;6.70;;;11.10;99.90;;;;;;5019868;28;20461;-82
2023/04/24 01:47:19;;;;;;;8.00;7.30;;;11.20;99.90;;;;;;5020005;28;20422;-82
2023/04/24 01:49:48;;;;;;;7.93;7.23;;;11.20;99.90;;;;;;5020277;28;20423;-80
2023/04/24 01:52:18;;;;;;;7.90;7.10;;;11.20;99.90;;;;;;5020172;28;20433;-81
2023/04/24 01:54:45;;;;;;;8.30;7.60;;;11.30;99.90;;;;;;5008324;28;20484;-81
2023/04/24 01:57:14;;;;;;;8.43;7.70;;;11.20;99.90;;;;;;5005927;28;20531;-81
2023/04/24 01:59:42;;;;;;;7.53;6.90;;;11.20;99.90;;;;;;5006466;28;20482;-82
2023/04/24 02:02:09;;;;;;;9.33;7.73;;;11.20;99.90;;;;;;5006502;28;20423;-83
2023/04/24 02:04:36;;;;;;;8.27;7.60;;;11.20;99.90;;;;;;5006321;28;20958;-82
2023/04/24 02:07:03;;;;;;;8.83;8.03;;;11.30;99.90;;;;;;5005599;28;20488;-83
2023/04/24 02:09:29;;;;;;;9.67;7.83;;;11.30;99.90;;;;;;5005501;28;20455;-82
2023/04/24 02:11:57;;;;;;;8.63;7.83;;;11.30;99.90;;;;;;5014104;28;20433;-82
2023/04/24 02:14:25;;;;;;;7.80;7.00;;;11.30;99.90;;;;;;5017544;28;20499;-82
2023/04/24 02:16:53;;;;;;;8.63;7.93;;;11.30;99.90;;;;;;5019076;28;20422;-81
2023/04/24 02:19:20;;;;;;;8.10;7.30;;;11.20;1.00;;;;;;5018777;28;20478;-81
2023/04/24 02:21:46;;;;;;;8.10;7.30;;;11.30;99.90;;;;;;5019745;28;20500;-80
2023/04/24 02:24:13;;;;;;;8.23;7.40;;;11.30;99.90;;;;;;5018648;28;20500;-82
2023/04/24 02:26:40;;;;;;;8.70;7.90;;;11.40;1.00;;;;;;5013327;28;20457;-83
2023/04/24 02:29:07;;;;;;;8.57;7.70;;;11.40;99.90;;;;;;5010156;28;20472;-82
2023/04/24 02:31:35;;;;;;;8.40;7.70;;;11.40;1.00;;;;;;5012274;28;20441;-82
2023/04/24 02:34:02;;;;;;;8.60;7.80;;;11.40;1.00;;;;;;5019350;28;20563;-82
2023/04/24 02:36:30;;;;;;;8.30;7.50;;;11.40;99.90;;;;;;5019056;28;20422;-81
2023/04/24 02:38:56;;;;;;;9.97;8.80;;;11.40;99.90;;;;;;5019384;28;20495;-81
2023/04/24 02:41:23;;;;;;;10.83;8.30;;;11.50;99.90;;;;;;5019211;28;20434;-81
2023/04/24 02:43:50;;;;;;;8.77;7.87;;;11.50;99.90;;;;;;5019186;28;20435;-82
2023/04/24 02:46:17;;;;;;;10.83;8.40;;;11.50;99.90;;;;;;5005019;28;20528;-83
2023/04/24 02:48:45;;;;;;;8.23;7.43;;;11.40;1.00;;;;;;5002696;28;20420;-83
2023/04/24 02:51:12;;;;;;;9.53;8.73;;;11.40;1.00;;;;;;5001800;28;20428;-82
2023/04/24 02:53:39;;;;;;;8.20;7.40;;;11.50;1.00;;;;;;5002641;28;20558;-82
2023/04/24 02:56:06;;;;;;;9.30;8.50;;;11.20;1.00;;;;;;5003656;28;20428;-82
2023/04/24 02:58:33;;;;;;;9.67;8.67;;;11.60;1.00;;;;;;5013262;28;20486;-82
2023/04/24 03:01:00;;;;;;;8.47;7.50;;;11.60;1.00;;;;;;5018137;28;20404;-81
2023/04/24 03:03:27;;;;;;;9.13;7.80;;;11.60;99.90;;;;;;5017900;28;20488;-81
2023/04/24 03:05:55;;;;;;;8.03;7.23;;;11.70;99.90;;;;;;5018931;28;20416;-81
2023/04/24 03:08:22;;;;;;;8.73;7.60;;;11.70;99.90;;;;;;5013496;28;20440;-82
2023/04/24 03:10:49;;;;;;;9.30;8.13;;;11.70;99.90;;;;;;5005737;28;20431;-82
2023/04/24 03:13:16;;;;;;;8.30;7.50;;;11.70;99.90;;;;;;5004926;28;20541;-83
2023/04/24 03:15:43;;;;;;;8.80;8.00;;;11.70;99.90;;;;;;5004076;28;20451;-83
2023/04/24 03:18:12;;;;;;;8.80;8.00;;;11.80;99.90;;;;;;5002851;28;20457;-82
2023/04/24 03:20:39;;;;;;;8.93;8.13;;;;;;;;;;5003940;28;20420;-82
2023/04/24 03:23:07;;;;;;;8.40;7.70;;;11.80;99.90;;;;;;5009801;28;20473;-82
2023/04/24 03:25:34;;;;;;;8.00;7.20;;;11.80;99.90;;;;;;5011448;28;20449;-82
2023/04/24 03:28:01;;;;;;;8.47;7.57;;;11.80;99.90;;;;;;5008419;28;20532;-82
2023/04/24 03:30:28;;;;;;;10.00;7.80;;;11.80;99.90;;;;;;5009370;28;20480;-82
2023/04/24 03:32:55;;;;;;;8.63;7.60;;;11.80;99.90;;;;;;5016881;28;20439;-81
2023/04/24 03:35:22;;;;;;;7.70;7.10;;;11.90;99.90;;;;;;5014943;28;20424;-82
2023/04/24 03:37:49;;;;;;;8.70;7.90;;;11.90;99.90;;;;;;5007202;28;20523;-83
2023/04/24 03:40:17;;;;;;;9.47;8.43;;;11.90;99.90;;;;;;5005082;28;20494;-82
2023/04/24 03:42:44;;;;;;;8.57;7.77;;;12.10;99.90;;;;;;5004306;28;20444;-82
2023/04/24 03:45:11;;;;;;;8.63;7.83;;;11.90;99.90;;;;;;5004839;28;20454;-82
2023/04/24 03:47:38;;;;;;;7.57;6.87;;;12.00;99.90;;;;;;5005111;28;20449;-83
2023/04/24 03:50:06;;;;;;;10.03;8.53;;;11.90;99.90;;;;;;5007078;28;20464;-82
2023/04/24 03:52:32;;;;;;;8.40;7.63;;;11.90;99.90;;;;;;5009743;28;20476;-82
2023/04/24 03:54:59;;;;;;;7.83;7.13;;;12.00;99.90;;;;;;5012161;28;20487;-83
2023/04/24 03:57:28;;;;;;;8.20;7.37;;;11.90;99.90;;;;;;5006063;28;20492;-84
2023/04/24 03:59:55;;;;;;;9.10;8.20;;;11.90;99.90;;;;;;5003518;28;20497;-82
2023/04/24 04:02:21;;;;;;;8.37;7.50;;;11.90;99.90;;;;;;5004702;28;20973;-82
2023/04/24 04:04:48;;;;;;;9.03;7.70;;;11.90;99.90;;;;;;5005848;28;20459;-83
2023/04/24 04:07:15;;;;;;;7.77;7.00;;;11.90;99.90;;;;;;5006964;28;20459;-83
2023/04/24 04:09:42;;;;;;;7.60;6.83;;;11.90;99.90;;;;;;5006849;28;20449;-83
2023/04/24 04:12:09;;;;;;;10.40;8.20;;;11.90;99.90;;;;;;5006727;28;20453;-83
2023/04/24 04:14:40;;;;;;;10.07;7.50;;;12.00;99.90;;;;;;5011790;28;20534;-82
2023/04/24 04:17:07;;;;;;;9.00;8.20;;;11.90;99.90;;;;;;5018624;28;20453;-82
2023/04/24 04:19:34;;;;;;;13.87;8.07;;;11.90;99.90;;;;;;5018328;28;20431;-82
2023/04/24 04:22:01;;;;;;;8.40;7.70;;;11.90;99.90;;;;;;5018828;28;20506;-82
2023/04/24 04:24:29;;;;;;;9.53;8.00;;;11.90;99.90;;;;;;5017035;28;20468;-82
2023/04/24 04:26:56;;;;;;;9.07;8.17;;;12.00;99.90;;;;;;5010051;28;20907;-82
2023/04/24 04:29:23;;;;;;;8.57;7.77;;;11.90;99.90;;;;;;5008716;28;20491;-82
2023/04/24 04:31:52;;;;;;;8.13;7.37;;;11.90;99.90;;;;;;5007149;28;20512;-83
2023/04/24 04:34:19;;;;;;;8.80;7.20;;;12.00;99.90;;;;;;5006641;28;20446;-82
2023/04/24 04:36:46;;;;;;;8.80;8.00;;;12.00;99.90;;;;;;5006616;28;20456;-82
2023/04/24 04:39:14;;;;;;;7.73;7.10;;;12.00;99.90;;;;;;5009312;28;20462;-83
2023/04/24 04:41:41;;;;;;;7.90;7.20;;;12.00;99.90;;;;;;5006907;28;20456;-83
2023/04/24 04:44:08;;;;;;;9.53;8.53;;;12.00;99.90;;;;;;5007906;28;20492;-83
2023/04/24 04:46:37;;;;;;;11.90;9.90;;;12.10;99.90;;;;;;5007315;28;20427;-84
2023/04/24 04:49:05;;;;;;;188.43;102.07;;;12.10;99.90;;;;;;5006029;28;20959;-82
2023/04/24 04:51:32;;;;;;;9.20;8.03;;;12.10;99.90;;;;;;5006189;28;20428;-81
2023/04/24 04:53:59;;;;;;;7.57;6.87;;;12.10;99.90;;;;;;5009992;28;20479;-83
2023/04/24 04:56:26;;;;;;;7.57;6.60;;;12.20;99.90;;;;;;5006571;28;20423;-82
2023/04/24 04:58:53;;;;;;;9.80;7.27;;;12.20;46.80;;;;;;5004871;28;20543;-83
2023/04/24 05:01:21;;;;;;;14.07;7.80;;;12.20;6.10;;;;;;5002605;28;20470;-82
2023/04/24 05:03:47;;;;;;;8.73;7.23;;;12.30;1.00;;;;;;5003389;28;20871;-83
2023/04/24 05:06:16;;;;;;;9.60;7.50;;;12.30;1.00;;;;;;5003735;28;20424;-84
2023/04/24 05:08:42;;;;;;;7.67;6.87;;;12.40;1.00;;;;;;5003418;28;20424;-84
2023/04/24 05:11:09;;;;;;;7.83;6.40;;;12.30;1.00;;;;;;5003992;28;20488;-82
2023/04/24 05:13:36;;;;;;;7.57;6.80;;;12.30;1.00;;;;;;5005286;28;20472;-83
2023/04/24 05:16:03;;;;;;;6.60;6.00;;;12.30;1.00;;;;;;5005184;28;20466;-83
2023/04/24 05:18:30;;;;;;;7.00;5.83;;;12.20;1.00;;;;;;5002954;28;20978;-83
2023/04/24 05:20:57;;;;;;;8.47;6.37;;;12.30;1.00;;;;;;5010590;28;20423;-84
2023/04/24 05:23:25;;;;;;;7.07;6.37;;;12.30;1.00;;;;;;5020102;28;20515;-82
2023/04/24 05:25:52;;;;;;;6.03;5.33;;;12.30;1.00;;;;;;5017682;28;20445;-83
2023/04/24 05:28:19;;;;;;;5.20;4.73;;;12.30;1.00;;;;;;5012739;28;20461;-83
2023/04/24 05:30:46;;;;;;;5.53;5.03;;;12.30;1.00;;;;;;5018055;28;20396;-82
2023/04/24 05:33:13;;;;;;;6.40;5.80;;;12.30;1.00;;;;;;5019986;28;20452;-82
2023/04/24 05:35:45;;;;;;;6.03;5.43;;;12.40;99.90;;;;;;5019235;28;20457;-83
2023/04/24 05:38:12;;;;;;;5.00;4.60;;;12.50;99.90;;;;;;5015656;28;20464;-83
2023/04/24 05:40:40;;;;;;;6.40;5.73;;;12.50;99.90;;;;;;5004470;28;20463;-83
2023/04/24 05:43:07;;;;;;;6.33;5.10;;;12.50;99.90;;;;;;5003149;28;20471;-83
2023/04/24 05:45:35;;;;;;;6.80;4.90;;;12.60;99.90;;;;;;5002954;28;20861;-83
2023/04/24 05:48:02;;;;;;;6.20;4.40;;;12.70;1.00;;;;;;5010186;28;20445;-83
2023/04/24 05:50:29;;;;;;;5.40;4.90;;;12.70;1.00;;;;;;5018165;28;20500;-83
2023/04/24 05:52:57;;;;;;;9.10;5.03;;;12.70;1.00;;;;;;5013426;28;20444;-83
2023/04/24 05:55:25;;;;;;;7.70;4.97;;;12.70;1.00;;;;;;5009419;28;20824;-83
2023/04/24 05:57:53;;;;;;;6.00;5.20;;;12.80;99.90;;;;;;5001183;28;20463;-83
2023/04/24 06:00:20;;;;;;;10.23;5.10;;;12.70;99.90;;;;;;5000472;28;20568;-83
2023/04/24 06:02:47;;;;;;;5.47;4.97;;;12.60;1.00;;;;;;5001691;28;20468;-84
2023/04/24 06:05:14;;;;;;;10.17;4.27;;;12.80;99.90;;;;;;5006375;28;20459;-83
2023/04/24 06:07:41;;;;;;;4.70;3.57;;;12.90;99.90;;;;;;5019764;28;20484;-82
2023/04/24 06:10:09;;;;;;;4.27;3.87;;;12.80;99.90;;;;;;5018794;28;20404;-82
2023/04/24 06:12:36;;;;;;;3.90;3.27;;;13.20;99.90;;;;;;5018836;28;20492;-81
2023/04/24 06:15:05;;;;;;;3.77;3.47;;;13.20;99.90;;;;;;5018496;28;20437;-83
2023/04/24 06:17:32;;;;;;;6.37;3.50;;;13.30;1.00;;;;;;5019009;28;20456;-83
2023/04/24 06:19:59;;;;;;;3.23;2.93;;;13.40;1.00;;;;;;5018621;28;20484;-83
2023/04/24 06:22:26;;;;;;;4.57;4.07;;;13.40;99.90;;;;;;5018436;28;20437;-81
2023/04/24 06:24:53;;;;;;;3.90;3.00;;;13.40;99.90;;;;;;5017521;28;20456;-80
2023/04/24 06:27:20;;;;;;;3.40;2.93;;;13.40;99.90;;;;;;5008800;28;20468;-81
2023/04/24 06:29:52;;;;;;;4.70;2.40;;;13.40;99.90;;;;;;5002228;28;20449;-82
2023/04/24 06:32:20;;;;;;;4.10;3.20;;;13.30;90.00;;;;;;5001757;28;20450;-81
2023/04/24 06:34:47;;;;;;;3.10;2.80;;;13.30;99.90;;;;;;5001184;28;20909;-82
2023/04/24 06:37:16;;;;;;;4.77;4.33;;;13.30;99.90;;;;;;5001061;28;20448;-81
2023/04/24 06:39:42;;;;;;;2.87;2.67;;;13.30;99.90;;;;;;5002347;28;20484;-81
2023/04/24 06:42:09;;;;;;;2.77;2.57;;;13.40;1.00;;;;;;5002061;28;20437;-82
2023/04/24 06:44:40;;;;;;;3.20;2.80;;;13.50;99.90;;;;;;5001528;28;20858;-81
2023/04/24 06:47:08;;;;;;;3.10;2.80;;;13.60;99.90;;;;;;5001097;28;20433;-82
2023/04/24 06:49:36;;;;;;;3.50;1.97;;;14.10;99.90;;;;;;5009246;28;20437;-82
2023/04/24 06:52:03;;;;;;;3.33;3.03;;;13.90;1.00;;;;;;5012657;28;20501;-84
2023/04/24 06:54:30;;;;;;;3.13;2.80;;;14.00;1.00;;;;;;5006269;28;20568;-85
2023/04/24 06:56:58;;;;;;;1.93;1.73;;;14.10;1.00;;;;;;5001158;28;20467;-85
2023/04/24 06:59:25;;;;;;;3.83;2.23;;;14.20;1.00;;;;;;5001754;28;20569;-83
2023/04/24 07:01:52;;;;;;;8.37;2.10;;;14.40;1.00;;;;;;5005502;28;20453;-82
2023/04/24 07:04:20;;;;;;;3.10;2.43;;;14.50;99.90;;;;;;5013988;28;20461;-82
2023/04/24 07:06:49;;;;;;;2.17;1.87;;;14.60;99.90;;;;;;5016206;28;20429;-83
2023/04/24 07:09:18;;;;;;;2.60;2.07;;;14.80;45.00;;;;;;5016511;28;20500;-82
2023/04/24 07:11:45;;;;;;;2.63;2.00;;;14.70;1.00;;;;;;5014418;28;20453;-83
2023/04/24 07:14:12;;;;;;;3.60;3.40;;;14.70;22.10;;;;;;5013524;28;20460;-83
2023/04/24 07:16:39;;;;;;;2.23;1.80;;;14.70;1.00;;;;;;5010021;28;20452;-84
2023/04/24 07:19:06;;;;;;;1.83;1.33;;;14.50;1.00;;;;;;5009028;28;20456;-84
2023/04/24 07:21:33;;;;;;;6.03;1.80;;;14.80;99.90;;;;;;5008539;28;20543;-83
2023/04/24 07:24:02;;;;;;;1.93;1.80;;;14.90;1.00;;;;;;5013544;28;20476;-84
2023/04/24 07:26:30;;;;;;;3.20;2.00;;;15.20;99.90;;;;;;5012186;28;20415;-84
2023/04/24 07:28:57;;;;;;;1.70;1.60;;;15.40;1.00;;;;;;5016929;28;20475;-84
2023/04/24 07:31:24;;;;;;;3.30;2.00;;;15.10;1.00;;;;;;5018586;28;20444;-83
2023/04/24 07:33:51;;;;;;;2.73;1.83;;;15.50;99.90;;;;;;5014731;28;20564;-84
2023/04/24 07:36:20;;;;;;;3.27;2.20;;;15.20;1.00;;;;;;5011184;28;20456;-84
2023/04/24 07:38:47;;;;;;;2.00;1.50;;;15.30;1.00;;;;;;5008352;28;20433;-84
2023/04/24 07:41:15;;;;;;;1.83;1.50;;;15.30;1.00;;;;;;5008347;28;20488;-83
2023/04/24 07:43:42;;;;;;;4.70;1.57;;;15.50;1.00;;;;;;5008916;28;20500;-83
2023/04/24 07:46:10;;;;;;;1.77;1.50;;;15.50;1.00;;;;;;5008647;28;20817;-83
2023/04/24 07:48:37;;;;;;;1.87;1.70;;;15.50;1.00;;;;;;5006963;28;20543;-83
2023/04/24 07:51:04;;;;;;;1.33;1.23;;;15.60;1.00;;;;;;5006830;28;20528;-83
2023/04/24 07:53:34;;;;;;;3.17;1.57;;;15.50;14.70;;;;;;5007593;28;20484;-82
2023/04/24 07:56:01;;;;;;;2.43;1.57;;;15.50;1.00;;;;;;5007906;28;20811;-82
2023/04/24 07:58:29;;;;;;;2.50;1.77;;;15.40;1.00;;;;;;5010829;28;20423;-83
2023/04/24 08:00:56;;;;;;;1.23;1.13;;;15.30;1.00;;;;;;5013647;28;20490;-82
2023/04/24 08:03:24;;;;;;;1.70;1.60;;;15.40;1.00;;;;;;5013978;28;20489;-82
2023/04/24 08:05:51;;;;;;;2.00;1.40;;;15.60;1.00;;;;;;5013956;28;20511;-82
2023/04/24 08:08:18;;;;;;;2.30;1.60;;;15.80;1.00;;;;;;5013839;28;20444;-82
2023/04/24 08:10:45;;;;;;;1.83;1.73;;;15.90;1.00;;;;;;5013780;28;20475;-83
2023/04/24 08:13:12;;;;;;;1.57;1.47;;;15.80;1.00;;;;;;5019178;28;20484;-82
2023/04/24 08:15:40;;;;;;;1.80;1.70;;;15.70;99.90;;;;;;5021126;28;20441;-82
2023/04/24 08:18:08;;;;;;;2.60;1.40;;;15.80;1.00;;;;;;5021306;28;20528;-83
2023/04/24 08:20:36;;;;;;;3.37;2.20;;;15.80;1.00;;;;;;5020581;28;20500;-82
2023/04/24 08:23:05;;;;;;;1.50;1.40;;;15.90;1.00;;;;;;5019844;28;20495;-83
2023/04/24 08:25:34;;;;;;;1.80;1.70;;;15.70;1.00;;;;;;5018287;28;20438;-82
2023/04/24 08:28:02;;;;;;;3.10;1.23;;;;;;;;;;5018721;28;20442;-82
2023/04/24 08:30:29;;;;;;;3.10;1.47;;;15.80;1.00;;;;;;5019772;28;20452;-82
2023/04/24 08:32:57;;;;;;;2.17;1.60;;;16.00;1.00;;;;;;5018056;28;20473;-82
2023/04/24 08:35:25;;;;;;;1.40;1.23;;;16.20;1.00;;;;;;5018573;28;20448;-82
2023/04/24 08:37:52;;;;;;;2.60;1.53;;;16.00;1.00;;;;;;5016816;28;20461;-82
2023/04/24 08:40:22;;;;;;;2.20;1.40;;;16.20;1.00;;;;;;5015305;28;20511;-83
2023/04/24 08:42:53;;;;;;;4.10;1.40;;;15.20;36.70;;;;;;5018884;28;20448;-82
2023/04/24 08:45:20;;;;;;;1.27;1.17;;;16.60;1.00;;;;;;5018671;28;20433;-82
2023/04/24 08:47:49;;;;;;;1.67;1.57;;;16.40;1.00;;;;;;5013490;28;20455;-82
2023/04/24 08:50:18;;;;;;;1.40;1.30;;;16.50;1.00;;;;;;5010638;28;20516;-83
2023/04/24 08:52:44;;;;;;;4.73;1.40;;;16.70;1.00;;;;;;5013006;28;20601;-82
2023/04/24 08:55:11;;;;;;;1.90;1.73;;;16.50;1.00;;;;;;5006838;28;20441;-83
2023/04/24 08:57:40;;;;;;;1.20;1.10;;;16.90;1.00;;;;;;5006918;28;20445;-82
2023/04/24 09:00:08;;;;;;;1.33;1.23;;;17.20;1.00;;;;;;5005991;28;20520;-83
2023/04/24 09:02:35;;;;;;;3.00;1.70;;;17.30;1.00;;;;;;4989266;28;20458;-83
2023/04/24 09:05:03;;;;;;;2.20;1.17;;;16.90;1.00;;;;;;5001850;28;20460;-82
2023/04/24 09:07:36;;;;;;;2.30;1.33;;;17.00;1.00;;;;;;5002018;28;20449;-84
2023/04/24 09:10:03;;;;;;;1.50;1.40;;;16.90;1.00;;;;;;5007094;28;20473;-82
2023/04/24 09:12:30;;;;;;;2.30;1.20;;;17.10;1.00;;;;;;5019579;28;20456;-83
2023/04/24 09:14:57;;;;;;;1.20;1.10;;;17.10;1.00;;;;;;5014995;28;20496;-83
2023/04/24 09:17:26;;;;;;;1.40;1.07;;;17.00;1.00;;;;;;5007038;28;20451;-84
2023/04/24 09:19:53;;;;;;;1.40;1.30;;;16.90;1.00;;;;;;5005827;28;20543;-84
2023/04/24 09:22:21;;;;;;;1.60;1.10;;;16.70;1.00;;;;;;5005330;28;20471;-83
2023/04/24 09:25:00;;;;;;;1.40;1.30;;;16.60;1.00;;;;;;5011480;28;21040;-83
2023/04/24 09:27:30;;;;;;;3.90;1.30;;;16.80;1.00;;;;;;5019335;28;20424;-83
2023/04/24 09:29:57;;;;;;;1.50;1.40;;;17.70;1.00;;;;;;5013471;28;20461;-83
2023/04/24 09:32:25;;;;;;;1.90;1.57;;;16.50;1.00;;;;;;5008066;28;20508;-83
2023/04/24 09:35:07;;;;;;;1.53;1.43;;;16.60;1.00;;;;;;5007543;28;20836;-83
2023/04/24 09:37:37;;;;;;;2.53;2.43;;;16.50;1.00;;;;;;5007092;28;20433;-84
2023/04/24 09:40:19;;;;;;;1.90;1.80;;;16.60;1.00;;;;;;5005479;28;20504;-82
2023/04/24 09:42:46;;;;;;;4.57;1.47;;;16.60;52.40;;;;;;5006919;28;20457;-83
2023/04/24 09:45:13;;;;;;;2.53;2.03;;;16.40;1.00;;;;;;5010741;28;20445;-83
2023/04/24 09:47:41;;;;;;;2.83;2.03;;;16.40;1.00;;;;;;5017923;28;20504;-82
2023/04/24 09:50:14;;;;;;;2.23;1.70;;;16.40;1.00;;;;;;5019818;28;20496;-82
2023/04/24 09:52:43;;;;;;;2.37;2.00;;;16.70;1.00;;;;;;5018695;28;20472;-83
2023/04/24 09:55:20;;;;;;;2.60;1.30;;;16.60;1.00;;;;;;5018946;28;20486;-82
2023/04/24 09:57:55;;;;;;;1.87;1.70;;;16.80;1.00;;;;;;5017568;28;20468;-84
2023/04/24 10:00:26;;;;;;;2.03;1.67;;;17.00;1.00;;;;;;5016194;28;20484;-83
2023/04/24 10:03:01;;;;;;;3.00;1.77;;;17.10;36.90;;;;;;5011500;28;20936;-84
2023/04/24 10:05:29;;;;;;;2.43;1.90;;;17.10;1.00;;;;;;5005931;28;20460;-83
2023/04/24 10:08:02;;;;;;;2.80;1.83;;;17.10;1.00;;;;;;5002388;28;20469;-85
2023/04/24 10:10:31;;;;;;;4.10;1.33;;;17.00;1.00;;;;;;5007343;28;20472;-84
2023/04/24 10:12:58;;;;;;;1.70;1.60;;;17.00;1.00;;;;;;5011785;28;20875;-80
2023/04/24 10:15:26;;;;;;;3.10;1.90;;;17.30;1.00;;;;;;5003328;28;20459;-82
2023/04/24 10:17:53;;;;;;;1.87;1.63;;;17.10;1.00;;;;;;5003309;28;20449;-82
2023/04/24 10:20:21;;;;;;;6.63;3.00;;;17.00;1.00;;;;;;5003592;28;20478;-82
2023/04/24 10:22:51;;;;;;;1.67;1.57;;;17.80;25.40;;;;;;5010985;28;20441;-79
2023/04/24 10:25:19;;;;;;;1.77;1.67;;;17.70;1.00;;;;;;5017438;28;20432;-80
2023/04/24 10:27:49;;;;;;;1.67;1.57;;;17.90;1.00;;;;;;5017605;28;20449;-80
2023/04/24 10:30:17;;;;;;;2.00;1.23;;;17.90;1.00;;;;;;5008119;28;20524;-81
2023/04/24 10:32:44;;;;;;;2.03;1.67;;;17.60;1.00;;;;;;5003785;28;20453;-81
2023/04/24 10:35:12;;;;;;;1.20;1.10;;;17.80;1.00;;;;;;5001565;28;20459;-81
2023/04/24 10:37:43;;;;;;;3.33;1.50;;;17.50;1.00;;;;;;5001158;28;20483;-81
2023/04/24 10:40:11;;;;;;;1.63;1.30;;;17.40;1.00;;;;;;5001265;28;20520;-81
2023/04/24 10:42:42;;;;;;;2.60;1.50;;;16.90;1.00;;;;;;5003951;28;20985;-81
2023/04/24 10:45:21;;;;;;;2.40;1.40;;;17.00;1.00;;;;;;5004867;28;20448;-81
2023/04/24 10:47:58;;;;;;;4.77;2.20;;;16.80;1.00;;;;;;5003399;28;20464;-81
2023/04/24 10:50:26;;;;;;;4.20;2.43;;;16.60;1.00;;;;;;5002583;28;20441;-80
2023/04/24 10:52:54;;;;;;;1.70;1.60;;;16.70;1.00;;;;;;5003312;28;20521;-80
2023/04/24 10:55:42;;;;;;;3.50;1.73;;;16.80;25.90;;;;;;5001797;28;20465;-80
2023/04/24 10:58:10;;;;;;;2.77;1.70;;;17.00;1.00;;;;;;5001945;28;20444;-80
2023/04/24 11:00:39;;;;;;;5.20;1.77;;;16.70;1.00;;;;;;5001627;28;20497;-81
2023/04/24 11:03:09;;;;;;;2.67;2.43;;;16.80;1.00;;;;;;5007810;28;20465;-79
2023/04/24 11:05:56;;;;;;;2.73;1.50;;;17.00;1.00;;;;;;5011625;28;20430;-79
2023/04/24 11:08:29;;;;;;;2.50;2.23;;;17.10;1.00;;;;;;5005573;28;20493;-80
2023/04/24 11:11:04;;;;;;;1.70;1.60;;;17.30;1.00;;;;;;5009096;28;20460;-80
2023/04/24 11:14:04;;;;;;;3.40;1.90;;;17.50;1.00;;;;;;5010266;28;20527;-80
2023/04/24 11:16:34;;;;;;;2.03;1.83;;;17.80;1.00;;;;;;5007103;28;20936;-81
2023/04/24 11:19:03;;;;;;;1.83;1.70;;;17.80;1.00;;;;;;5001983;28;20511;-81
2023/04/24 11:21:41;;;;;;;1.70;1.60;;;17.90;1.00;;;;;;5002022;28;20513;-80
2023/04/24 11:24:30;;;;;;;1.60;1.50;;;17.40;1.00;;;;;;5013326;28;20467;-80
2023/04/24 11:27:01;;;;;;;1.90;1.80;;;17.60;1.00;;;;;;5011202;28;20434;-81
2023/04/24 11:29:45;;;;;;;2.07;1.97;;;17.60;1.00;;;;;;5003392;28;20444;-81
2023/04/24 11:32:27;;;;;;;4.40;3.20;;;17.50;1.00;;;;;;5001546;28;20516;-81
2023/04/24 11:34:55;;;;;;;4.37;2.73;;;16.40;1.00;;;;;;5000674;28;20541;-81
2023/04/24 11:37:23;;;;;;;7.10;3.80;;;16.40;1.00;;;;;;5000317;28;20983;-81
2023/04/24 11:39:52;;;;;;;3.00;2.60;;;15.00;99.90;;;;;;5009083;28;20540;-80
2023/04/24 11:42:20;;;;;;;3.93;3.50;;;14.40;99.90;;;;;;5015893;28;20472;-80
2023/04/24 11:44:48;;;;;;;5.53;3.37;;;14.30;99.90;;;;;;5008853;28;20556;-83
2023/04/24 11:47:15;;;;;;;3.00;2.83;;;14.20;99.90;;;;;;5003256;28;20448;-81
2023/04/24 11:49:43;;;;;;;2.93;2.83;;;14.40;1.00;;;;;;5000726;28;20449;-81
2023/04/24 11:52:11;;;;;;;4.10;3.80;;;14.60;1.00;;;;;;5000123;28;20488;-81
2023/04/24 11:54:38;;;;;;;3.70;3.40;;;14.80;99.90;;;;;;5000624;28;20515;-80
2023/04/24 11:57:06;;;;;;;3.40;3.10;;;15.00;1.00;;;;;;4999837;28;20461;-81
2023/04/24 11:59:37;;;;;;;4.00;3.20;;;15.20;1.00;;;;;;5000766;28;20460;-81
2023/04/24 12:02:04;;;;;;;7.57;5.37;;;15.50;2.10;;;;;;5003186;28;20476;-80
2023/04/24 12:04:40;;;;;;;3.50;3.30;;;15.70;1.00;;;;;;4999976;28;20453;-81
2023/04/24 12:07:09;;;;;;;2.50;2.37;;;16.40;99.90;;;;;;4999482;28;20932;-81
2023/04/24 12:09:43;;;;;;;3.83;2.20;;;16.10;1.00;;;;;;5002586;28;20950;-81
2023/04/24 12:12:11;;;;;;;3.10;2.17;;;16.20;99.90;;;;;;5004570;28;20944;-81
2023/04/24 12:14:44;;;;;;;2.77;2.17;;;16.50;14.70;;;;;;5003165;28;20559;-81
2023/04/24 12:17:11;;;;;;;2.97;1.70;;;16.30;99.90;;;;;;5002805;28;20469;-81
2023/04/24 12:19:38;;;;;;;4.60;2.40;;;16.30;99.90;;;;;;5013317;28;20480;-79
2023/04/24 12:22:08;;;;;;;1.97;1.87;;;16.40;99.90;;;;;;5011500;28;20507;-80
2023/04/24 12:24:34;;;;;;;1.77;1.67;;;16.60;1.00;;;;;;5007472;28;20534;-80
2023/04/24 12:27:02;;;;;;;1.73;1.63;;;16.60;1.00;;;;;;5011686;28;20452;-80
2023/04/24 12:29:29;;;;;;;2.13;2.03;;;16.70;1.00;;;;;;5003814;28;20427;-80
2023/04/24 12:31:56;;;;;;;1.90;1.80;;;16.70;1.00;;;;;;5003189;28;20441;-80
2023/04/24 12:34:24;;;;;;;2.30;2.20;;;17.00;1.00;;;;;;5002899;28;20902;-80
2023/04/24 12:36:52;;;;;;;1.90;1.80;;;17.00;1.00;;;;;;5003206;28;20452;-81
2023/04/24 12:39:23;;;;;;;2.00;1.80;;;17.00;1.00;;;;;;5003121;28;20457;-81
2023/04/24 12:41:57;;;;;;;2.80;2.20;;;17.10;1.00;;;;;;5002529;28;20469;-80
2023/04/24 12:44:31;;;;;;;1.47;1.37;;;17.20;1.00;;;;;;5001139;28;21013;-80
2023/04/24 12:46:58;;;;;;;2.50;1.67;;;17.20;1.00;;;;;;5003060;28;20433;-80
2023/04/24 12:49:25;;;;;;;2.07;1.90;;;17.20;1.00;;;;;;5001409;28;20880;-81
2023/04/24 12:51:52;;;;;;;7.00;2.63;;;17.30;1.00;;;;;;5002352;28;20453;-81
2023/04/24 12:54:20;;;;;;;2.67;2.00;;;17.40;1.00;;;;;;5005340;28;20477;-80
2023/04/24 12:56:47;;;;;;;4.30;3.40;;;18.00;1.00;;;;;;5001932;28;20535;-82
2023/04/24 12:59:14;;;;;;;4.50;3.10;;;17.70;1.00;;;;;;5001577;28;20453;-80